チューリヒ国際空港の過去48時間の天気

チューリヒ国際空港 (Zurich-Kloten)

現在時刻: 9/17 13:20 CEST (9/17 11:20 UTC) 以下の時間は現地時間です。

過去48時間のMETAR気象情報
時間 風向 風速(m/s) 視程 気温(℃) 湿度(%) 気圧(hPa) 天気現象
17 12:50 不定 1 10km以上 22 53 1019
17 12:20 不定 2 10km以上 21 56 1020
17 11:50 不定 1 10km以上 21 56 1020
17 11:20 不定 1 10km以上 21 60 1020
17 10:50 不定 1 10km以上 20 60 1020
17 10:20 不定 2 10km以上 19 73 1020
17 09:50 不定 1 10km以上 18 77 1020
17 09:20 不定 1 10km以上 16 82 1020
17 08:50 西北西 2 10km以上 14 94 1020
17 08:20 不定 1 10km以上 14 94 1020
17 07:50 西 1 10km以上 12 94 1019
17 07:20 北北西 1 10km以上 12 94 1019
17 06:50 1 10km以上 12 100 1019 地霧
17 06:20 不定 1 10km以上 12 94 1019 地霧
17 05:50 不定 1 10km以上 13 94 1019 地霧
17 05:20 西 1 10km以上 13 94 1019
17 04:50 北西 1 10km以上 13 94 1019 地霧
17 04:20 不定 1 10km以上 14 94 1019 地霧
17 03:50 不定 1 10km以上 13 94 1019 地霧
17 03:20 不定 1 10km以上 14 94 1019
17 02:50 北東 1 10km以上 14 94 1019
17 01:50 不定 2 10km以上 14 94 1019
17 01:20 北北東 2 10km以上 14 88 1019
17 00:50 不定 1 10km以上 15 88 1019
17 00:20 不定 1 10km以上 16 88 1019
16 23:50 不定 1 10km以上 16 82 1020
16 23:20 不定 1 10km以上 18 77 1019
16 22:50 不定 1 10km以上 18 77 1019
16 22:20 不定 1 10km以上 18 77 1019
16 21:50 不定 1 10km以上 18 77 1019
16 21:20 不定 1 10km以上 20 73 1019
16 20:50 不定 1 10km以上 22 60 1019
16 20:20 不定 1 10km以上 22 65 1019
16 19:50 南西 1 10km以上 22 69 1019
16 19:20 北西 2 10km以上 24 54 1018
16 18:50 北西 4 10km以上 25 50 1019
16 18:20 西北西 3 10km以上 26 58 1018
16 17:50 西 3 10km以上 27 48 1019
16 17:20 不定 2 10km以上 28 48 1019
16 16:50 西北西 3 10km以上 27 51 1019
16 16:20 西 3 10km以上 28 45 1019
16 15:50 西 4 10km以上 27 45 1019
16 15:20 西 4 10km以上 27 48 1020
16 14:50 西南西 3 10km以上 27 48 1020
16 14:20 西南西 4 10km以上 26 51 1020
16 13:50 西南西 3 10km以上 26 51 1021
16 13:20 西南西 3 10km以上 25 54 1021
16 12:50 南西 3 10km以上 25 57 1021
16 12:20 南西 3 10km以上 24 61 1021
16 11:50 南西 3 10km以上 23 61 1022
16 11:20 南南西 2 10km以上 22 69 1022
16 10:50 不定 1 10km以上 21 73 1022
16 10:20 不定 1 10km以上 20 78 1022
16 09:50 不定 1 10km以上 19 83 1022
16 09:20 不定 1 9000m 18 83 1022
16 08:50 南南東 1 7000m 16 88 1022
16 08:20 不定 1 500m 14 100 1022 部分霧
16 07:50 不定 1 450m 13 100 1022 部分霧
16 07:20 不定 1 500m 14 100 1022 部分霧
16 06:50 南南東 1 500m 13 100 1022 部分霧
16 06:20 不定 1 400m 14 94 1022 部分霧
16 05:50 北北西 2 400m 14 94 1022 部分霧
16 05:20 北西 1 4000m 14 94 1022 周辺で霧 散在した霧
16 04:50 不定 1 6000m 13 100 1022 周辺で霧 散在した霧
16 04:20 静穏 0 6000m 14 100 1022 周辺で霧 散在した霧
16 03:50 北西 1 7000m 13 100 1023 散在した霧
16 03:20 不定 1 10km以上 14 100 1023 散在した霧
16 02:50 不定 1 10km以上 14 100 1023 地霧
16 01:50 南南東 1 10km以上 15 100 1023 地霧
16 01:20 北北東 1 10km以上 15 100 1023
16 00:50 北北西 1 10km以上 16 94 1023
16 00:20 北北西 1 10km以上 16 88 1023
15 23:50 静穏 0 10km以上 16 94 1023
15 23:20 不定 2 10km以上 18 83 1023
15 22:50 不定 1 10km以上 18 83 1023
15 22:20 2 10km以上 18 88 1023
15 21:50 南南東 2 10km以上 18 83 1023
15 21:20 不定 1 10km以上 18 83 1023
15 20:50 静穏 0 10km以上 19 78 1023
15 20:20 不定 1 10km以上 20 73 1023
15 19:50 南東 1 10km以上 22 69 1023
15 19:20 南南西 1 10km以上 24 61 1022
15 18:50 不定 2 10km以上 26 54 1023
15 18:20 不定 1 10km以上 27 51 1023
15 17:50 西南西 2 10km以上 27 48 1023
15 17:20 西 2 10km以上 27 48 1023
15 16:50 西南西 3 10km以上 27 48 1023
15 16:20 南西 2 10km以上 27 51 1024
15 15:50 西南西 3 10km以上 27 51 1024
15 15:20 西 2 10km以上 26 54 1024
15 14:50 西南西 3 10km以上 26 54 1025
15 14:20 南西 3 10km以上 25 61 1025
15 13:50 南西 3 10km以上 24 65 1025
LSZH 171050Z VRB02KT 9999 FEW040 SCT095 22/12 Q1019 NOSIG
LSZH 171020Z VRB03KT CAVOK 21/12 Q1020 NOSIG
LSZH 170950Z VRB01KT CAVOK 21/12 Q1020 NOSIG
LSZH 170920Z VRB02KT CAVOK 21/13 Q1020 NOSIG
LSZH 170850Z VRB02KT CAVOK 20/12 Q1020 NOSIG
LSZH 170820Z VRB03KT CAVOK 19/14 Q1020 NOSIG
LSZH 170750Z VRB01KT CAVOK 18/14 Q1020 NOSIG
LSZH 170720Z VRB02KT 9999 FEW058 SCT110 16/13 Q1020 NOSIG
LSZH 170650Z 30003KT 9999 FEW056 SCT110 14/13 Q1020 NOSIG
LSZH 170620Z VRB02KT 9999 FEW055 14/13 Q1020 NOSIG
LSZH 170550Z 27002KT CAVOK 12/11 Q1019 NOSIG
LSZH 170520Z 34002KT CAVOK 12/11 Q1019 NOSIG
LSZH 170450Z 01001KT 9999 MIFG NSC 12/12 Q1019 BECMG 4000 BR
LSZH 170420Z VRB01KT 9999 MIFG NSC 12/11 Q1019 BECMG 4000 BR
LSZH 170350Z VRB01KT 9999 MIFG NSC 13/12 Q1019 BECMG 4000 BR
LSZH 170320Z 27001KT CAVOK 13/12 Q1019 BECMG 4000 BR
LSZH 170250Z 31001KT 9999 MIFG NSC 13/12 Q1019 NOSIG
LSZH 170220Z VRB01KT 9999 MIFG NSC 14/13 Q1019 NOSIG
LSZH 170150Z VRB01KT 9999 MIFG NSC 13/12 Q1019 NOSIG
LSZH 170120Z VRB02KT CAVOK 14/13 Q1019 NOSIG
LSZH 170050Z 04001KT CAVOK 14/13 Q1019 NOSIG
LSZH 162350Z VRB03KT CAVOK 14/13 Q1019 NOSIG
LSZH 162320Z 03003KT CAVOK 14/12 Q1019 NOSIG
LSZH 162250Z VRB01KT CAVOK 15/13 Q1019 NOSIG
LSZH 162220Z VRB02KT CAVOK 16/14 Q1019 NOSIG
LSZH 162150Z VRB02KT CAVOK 16/13 Q1020 NOSIG
LSZH 162120Z VRB02KT 9999 FEW065 18/14 Q1019 NOSIG
LSZH 162050Z VRB02KT CAVOK 18/14 Q1019 NOSIG
LSZH 162020Z VRB01KT CAVOK 18/14 Q1019 NOSIG
LSZH 161950Z VRB01KT CAVOK 18/14 Q1019 NOSIG
LSZH 161920Z VRB02KT CAVOK 20/15 Q1019 NOSIG
LSZH 161850Z VRB02KT CAVOK 22/14 Q1019 NOSIG
LSZH 161820Z VRB01KT 9999 FEW060 SCT200 22/15 Q1019 NOSIG
LSZH 161750Z 22002KT 9999 FEW055 SCT150 22/16 Q1019 NOSIG
LSZH 161720Z 32003KT 9999 FEW055 SCT250 24/14 Q1018 NOSIG
LSZH 161650Z 31007KT 9999 FEW055 SCT250 25/14 Q1019 NOSIG
LSZH 161620Z 30005KT 9999 FEW050 SCT250 26/17 Q1018 NOSIG
LSZH 161550Z 26005KT 230V300 9999 FEW050 SCT250 27/15 Q1019 NOSIG
LSZH 161520Z VRB03KT 9999 FEW050 SCT250 28/16 Q1019 NOSIG
LSZH 161450Z 30005KT 270V330 9999 FEW050 SCT250 27/16 Q1019 NOSIG
LSZH 161420Z 26005KT 220V300 9999 FEW054 28/15 Q1019 NOSIG
LSZH 161350Z 28007KT 220V340 9999 FEW050 27/14 Q1019 NOSIG
LSZH 161320Z 26008KT 210V300 9999 FEW050 27/15 Q1020 NOSIG
LSZH 161250Z 25005KT 190V290 CAVOK 27/15 Q1020 NOSIG
LSZH 161220Z 24007KT 210V290 CAVOK 26/15 Q1020 NOSIG
LSZH 161150Z 25006KT 220V290 CAVOK 26/15 Q1021 NOSIG
LSZH 161120Z 24005KT 160V300 CAVOK 25/15 Q1021 NOSIG
LSZH 161050Z 23005KT 200V260 CAVOK 25/16 Q1021 NOSIG
LSZH 161020Z 23005KT 200V320 CAVOK 24/16 Q1021 NOSIG
LSZH 160950Z 22005KT 190V260 CAVOK 23/15 Q1022 NOSIG
LSZH 160920Z 21003KT 160V260 CAVOK 22/16 Q1022 NOSIG
LSZH 160850Z VRB02KT CAVOK 21/16 Q1022 NOSIG
LSZH 160820Z VRB02KT CAVOK 20/16 Q1022 NOSIG
LSZH 160750Z VRB02KT CAVOK 19/16 Q1022 NOSIG
LSZH 160720Z VRB02KT 9000 NSC 18/15 Q1022 NOSIG
LSZH 160650Z 16002KT 7000 NSC 16/14 Q1022 NOSIG
LSZH 160620Z VRB01KT 0500 R14/1100N R16/P2000N R28/P2000N R34/P2000N PRFG VV002 14/14 Q1022 BECMG 1500 BR SCT002
LSZH 160550Z VRB02KT 0450 R14/1100U R16/0600U R28/P2000N R34/P2000N PRFG VV002 13/13 Q1022 BECMG 0900 SCT002
LSZH 160520Z VRB01KT 0500 R14/0250D R16/1300N R28/P2000N R34/P2000N PRFG VV002 14/14 Q1022 BECMG 0900
LSZH 160450Z 16002KT 0500 R14/1400U R16/0900U R28/P2000N R34/P2000N PRFG VV002 13/13 Q1022 TEMPO 0300 FG
LSZH 160420Z VRB01KT 0400 R14/0800U R16/0800U R28/P2000N R34/P2000N PRFG VV002 14/13 Q1022 TEMPO 0300 FG
LSZH 160350Z 34003KT 0400 R14/0500D R16/0700D R28/P2000N R34/P2000N PRFG NSC 14/13 Q1022 TEMPO 0300 FG VV002
LSZH 160320Z 31002KT 4000 0300N R14/0800U R16/P2000N R28/P2000N R34/P2000N BCFG VCFG NSC 14/13 Q1022 TEMPO 0800 PRFG
LSZH 160250Z VRB01KT 6000 0700N R14/1200U R16/P2000N R28/P2000N R34/P2000N BCFG VCFG NSC 13/13 Q1022 TEMPO 0800 PRFG
LSZH 160220Z 00000KT 6000 0700N R14/P2000N R16/P2000N R28/P2000N R34/P2000N BCFG VCFG NSC 14/14 Q1022 TEMPO 0800 PRFG
LSZH 160150Z 32001KT 7000 BCFG NSC 13/13 Q1023 TEMPO 0800 PRFG
LSZH 160120Z VRB02KT 9999 BCFG NSC 14/14 Q1023 TEMPO 1200 PRFG
LSZH 160050Z VRB01KT 9999 MIFG NSC 14/14 Q1023 BECMG 2500 BCFG
LSZH 152350Z 15002KT 9999 MIFG NSC 15/15 Q1023 BECMG 2500 BCFG
LSZH 152320Z 03001KT CAVOK 15/15 Q1023 NOSIG
LSZH 152250Z 34002KT CAVOK 16/15 Q1023 NOSIG
LSZH 152220Z 33001KT CAVOK 16/14 Q1023 NOSIG
LSZH 152150Z 00000KT CAVOK 16/15 Q1023 NOSIG
LSZH 152120Z VRB03KT CAVOK 18/15 Q1023 NOSIG
LSZH 152050Z VRB02KT CAVOK 18/15 Q1023 NOSIG
LSZH 152020Z 17003KT CAVOK 18/16 Q1023 NOSIG
LSZH 151950Z 15003KT CAVOK 18/15 Q1023 NOSIG
LSZH 151920Z VRB01KT CAVOK 18/15 Q1023 NOSIG
LSZH 151850Z 00000KT CAVOK 19/15 Q1023 NOSIG
LSZH 151820Z VRB02KT CAVOK 20/15 Q1023 NOSIG
LSZH 151750Z 13001KT 9999 FEW070 22/16 Q1023 NOSIG
LSZH 151720Z 21002KT 9999 FEW060 24/16 Q1022 NOSIG
LSZH 151650Z VRB03KT 9999 FEW050 26/16 Q1023 NOSIG
LSZH 151620Z VRB02KT 9999 FEW045 27/16 Q1023 NOSIG
LSZH 151550Z 25003KT 200V310 9999 FEW042 27/15 Q1023 NOSIG
LSZH 151520Z 28004KT 230V320 9999 FEW042 27/15 Q1023 NOSIG
LSZH 151450Z 24005KT 9999 FEW042 27/15 Q1023 NOSIG
LSZH 151420Z 23004KT 170V320 9999 FEW042 27/16 Q1024 NOSIG
LSZH 151350Z 24005KT 180V270 9999 FEW042 27/16 Q1024 NOSIG
LSZH 151320Z 28004KT 220V320 9999 FEW040 26/16 Q1024 NOSIG
LSZH 151250Z 25005KT 200V300 9999 FEW035 26/16 Q1025 NOSIG
LSZH 151220Z 22006KT 190V260 9999 FEW030 25/17 Q1025 NOSIG
LSZH 151150Z 22006KT 150V270 9999 FEW030 24/17 Q1025 NOSIG